createdAt,value
2017-12-04T00:00:51.976Z,4.5
2017-12-04T00:01:53.574Z,4.5
2017-12-04T00:02:55.185Z,4.6
2017-12-04T00:03:56.783Z,4.5
2017-12-04T00:04:58.388Z,4.6
2017-12-04T00:06:00.008Z,4.5
2017-12-04T00:07:01.608Z,4.5
2017-12-04T00:08:03.224Z,4.6
2017-12-04T00:09:04.821Z,4.6
2017-12-04T00:10:06.431Z,4.6
2017-12-04T00:11:08.045Z,4.6
2017-12-04T00:12:09.649Z,4.5
2017-12-04T00:13:11.249Z,4.6
2017-12-04T00:14:12.852Z,4.5
2017-12-04T00:15:14.454Z,4.5
2017-12-04T00:16:16.061Z,4.6
2017-12-04T00:17:17.660Z,4.6
2017-12-04T00:18:19.267Z,4.6
2017-12-04T00:19:20.864Z,4.6
2017-12-04T00:20:22.484Z,4.5
2017-12-04T00:21:24.067Z,4.6
2017-12-04T00:22:25.676Z,4.6
2017-12-04T00:23:27.274Z,4.5
2017-12-04T00:24:28.880Z,4.6
2017-12-04T00:25:30.485Z,4.5
2017-12-04T00:26:32.089Z,4.5
2017-12-04T00:27:33.688Z,4.6
2017-12-04T00:28:35.297Z,4.5
2017-12-04T00:29:36.900Z,4.6
2017-12-04T00:30:38.502Z,4.5
2017-12-04T00:31:40.105Z,4.6
2017-12-04T00:32:41.717Z,4.6
2017-12-04T00:33:43.318Z,4.5
2017-12-04T00:34:44.918Z,4.7
2017-12-04T00:35:46.519Z,4.6
2017-12-04T00:36:48.128Z,4.5
2017-12-04T00:37:49.733Z,4.6
2017-12-04T00:38:51.335Z,4.6
2017-12-04T00:39:52.937Z,4.5
2017-12-04T00:40:54.543Z,4.6
2017-12-04T00:41:56.151Z,4.5
2017-12-04T00:42:57.749Z,4.6
2017-12-04T00:43:59.355Z,4.6
2017-12-04T00:45:00.963Z,4.5
2017-12-04T00:46:02.569Z,4.6
2017-12-04T00:47:04.176Z,4.6
2017-12-04T00:48:05.779Z,4.6
2017-12-04T00:49:07.375Z,4.7
2017-12-04T00:50:08.977Z,4.6
2017-12-04T00:51:10.581Z,4.7
2017-12-04T00:52:12.188Z,4.6
2017-12-04T00:53:13.788Z,4.7
2017-12-04T00:54:15.396Z,4.7
2017-12-04T00:55:17.001Z,4.7
2017-12-04T00:56:18.602Z,4.7
2017-12-04T00:57:20.210Z,4.8
2017-12-04T00:58:21.812Z,4.7
2017-12-04T00:59:23.414Z,4.7
2017-12-04T01:00:25.024Z,4.7
2017-12-04T01:01:26.629Z,4.7
2017-12-04T01:02:28.229Z,4.7
2017-12-04T01:03:29.829Z,4.7
2017-12-04T01:04:31.436Z,4.7
2017-12-04T01:05:33.035Z,4.7
2017-12-04T01:06:34.643Z,4.7
2017-12-04T01:07:36.244Z,4.6
2017-12-04T01:08:37.854Z,4.7
2017-12-04T01:09:39.448Z,4.6
2017-12-04T01:10:41.058Z,4.6
2017-12-04T01:11:42.657Z,4.7
2017-12-04T01:12:44.259Z,4.6
2017-12-04T01:13:45.859Z,4.7
2017-12-04T01:14:47.464Z,4.7
2017-12-04T01:15:49.072Z,4.6
2017-12-04T01:16:50.672Z,4.6
2017-12-04T01:17:52.278Z,4.7
2017-12-04T01:18:53.876Z,4.7
2017-12-04T01:19:55.480Z,4.7
2017-12-04T01:20:57.081Z,4.6
2017-12-04T01:21:58.690Z,4.7
2017-12-04T01:23:00.291Z,4.7
2017-12-04T01:24:01.895Z,4.7
2017-12-04T01:25:03.493Z,4.7
2017-12-04T01:26:05.102Z,4.6
2017-12-04T01:27:06.699Z,4.6
2017-12-04T01:28:08.306Z,4.7
2017-12-04T01:29:09.914Z,4.7
2017-12-04T01:30:11.519Z,4.6
2017-12-04T01:31:13.122Z,4.7
2017-12-04T01:32:14.720Z,4.6
2017-12-04T01:33:16.326Z,4.7
2017-12-04T01:34:17.926Z,4.7
2017-12-04T01:35:19.537Z,4.7
2017-12-04T01:36:21.141Z,4.6
2017-12-04T01:37:22.741Z,4.7
2017-12-04T01:38:24.347Z,4.7
2017-12-04T01:39:25.951Z,4.6
2017-12-04T01:40:27.557Z,4.7
2017-12-04T01:41:29.153Z,4.7
2017-12-04T01:42:30.761Z,4.7
2017-12-04T01:43:32.367Z,4.7
2017-12-04T01:44:33.966Z,4.8
2017-12-04T01:45:35.570Z,4.7
2017-12-04T01:46:37.178Z,4.8
2017-12-04T01:47:38.774Z,4.7
2017-12-04T01:48:40.383Z,4.7
2017-12-04T01:49:41.981Z,4.8
2017-12-04T01:50:43.593Z,4.7
2017-12-04T01:51:45.192Z,4.8
2017-12-04T01:52:46.797Z,4.8
2017-12-04T01:53:48.399Z,4.8
2017-12-04T01:54:49.998Z,4.8
2017-12-04T01:55:51.600Z,4.8
2017-12-04T01:56:53.209Z,4.8
2017-12-04T01:57:54.817Z,4.8
2017-12-04T01:58:56.420Z,4.9
2017-12-04T01:59:58.021Z,4.8
2017-12-04T02:00:59.627Z,4.8
2017-12-04T02:02:01.231Z,4.8
2017-12-04T02:03:02.833Z,4.8
2017-12-04T02:04:04.441Z,4.8
2017-12-04T02:05:06.042Z,4.9
2017-12-04T02:06:07.651Z,4.8
2017-12-04T02:07:09.258Z,4.8
2017-12-04T02:08:10.856Z,4.8
2017-12-04T02:09:12.471Z,4.9
2017-12-04T02:10:14.061Z,4.9
2017-12-04T02:11:15.671Z,4.9
2017-12-04T02:12:17.278Z,4.8
2017-12-04T02:13:18.879Z,4.8
2017-12-04T02:14:20.475Z,4.9
2017-12-04T02:15:22.086Z,4.9
2017-12-04T02:16:23.690Z,4.8
2017-12-04T02:17:25.291Z,4.9
2017-12-04T02:18:26.891Z,4.8
2017-12-04T02:19:28.504Z,4.8
2017-12-04T02:20:30.107Z,5.0
2017-12-04T02:21:31.706Z,4.9
2017-12-04T02:22:33.310Z,4.9
2017-12-04T02:23:34.916Z,4.9
2017-12-04T02:24:36.521Z,4.9
2017-12-04T02:25:38.121Z,4.9
2017-12-04T02:26:39.730Z,4.9
2017-12-04T02:27:41.331Z,5.0
2017-12-04T02:28:42.932Z,5.0
2017-12-04T02:29:44.543Z,4.9
2017-12-04T02:30:46.150Z,4.9
2017-12-04T02:31:47.748Z,4.9
2017-12-04T02:32:49.350Z,4.9
2017-12-04T02:33:50.958Z,4.9
2017-12-04T02:34:52.565Z,4.9
2017-12-04T02:35:54.165Z,5.0
2017-12-04T02:36:55.767Z,5.0
2017-12-04T02:37:57.375Z,5.0
2017-12-04T02:38:58.980Z,5.0
2017-12-04T02:40:00.581Z,4.9
2017-12-04T02:41:02.185Z,5.0
2017-12-04T02:42:03.796Z,5.0
2017-12-04T02:43:05.390Z,5.0
2017-12-04T02:44:07.000Z,5.0
2017-12-04T02:45:08.598Z,5.0
2017-12-04T02:46:10.206Z,5.0
2017-12-04T02:47:11.805Z,5.0
2017-12-04T02:48:13.415Z,5.0
2017-12-04T02:49:15.014Z,5.1
2017-12-04T02:50:16.627Z,5.1
2017-12-04T02:51:18.228Z,5.1
2017-12-04T02:52:19.833Z,5.1
2017-12-04T02:53:21.426Z,5.1
2017-12-04T02:54:23.034Z,5.0
2017-12-04T02:55:24.636Z,5.1
2017-12-04T02:56:26.245Z,5.0
2017-12-04T02:57:27.843Z,5.1
2017-12-04T02:58:29.452Z,5.1
2017-12-04T02:59:31.054Z,5.1
2017-12-04T03:00:32.656Z,5.1
2017-12-04T03:01:34.263Z,5.0
2017-12-04T03:02:35.866Z,5.0
2017-12-04T03:03:37.475Z,5.0
2017-12-04T03:04:39.074Z,5.1
2017-12-04T03:05:40.681Z,5.1
2017-12-04T03:06:42.280Z,5.1
2017-12-04T03:07:43.889Z,5.1
2017-12-04T03:08:45.489Z,5.1
2017-12-04T03:09:47.102Z,5.1
2017-12-04T03:10:48.703Z,5.1
2017-12-04T03:11:50.309Z,5.1
2017-12-04T03:12:51.909Z,5.1
2017-12-04T03:13:53.523Z,5.1
2017-12-04T03:14:55.124Z,5.1
2017-12-04T03:15:56.720Z,5.1
2017-12-04T03:16:58.328Z,5.1
2017-12-04T03:17:59.937Z,5.1
2017-12-04T03:19:01.537Z,5.1
2017-12-04T03:20:03.139Z,5.1
2017-12-04T03:21:04.746Z,5.1
2017-12-04T03:22:06.352Z,5.1
2017-12-04T03:23:07.954Z,5.1
2017-12-04T03:24:09.565Z,5.0
2017-12-04T03:25:11.167Z,5.1
2017-12-04T03:26:12.770Z,5.1
2017-12-04T03:27:14.372Z,5.1
2017-12-04T03:28:15.975Z,5.1
2017-12-04T03:29:17.579Z,5.1
2017-12-04T03:30:19.188Z,5.1
2017-12-04T03:31:20.789Z,5.1
2017-12-04T03:32:22.396Z,5.1
2017-12-04T03:33:23.994Z,5.2
2017-12-04T03:34:26.214Z,5.2
2017-12-04T03:35:27.821Z,5.2
2017-12-04T03:36:29.425Z,5.2
2017-12-04T03:37:31.026Z,5.2
2017-12-04T03:38:32.631Z,5.2
2017-12-04T03:39:34.242Z,5.2
2017-12-04T03:40:35.837Z,5.2
2017-12-04T03:41:37.442Z,5.2
2017-12-04T03:42:39.045Z,5.2
2017-12-04T03:43:40.644Z,5.1
2017-12-04T03:44:42.246Z,5.2
2017-12-04T03:45:43.873Z,5.2
2017-12-04T03:46:45.460Z,5.2
2017-12-04T03:47:47.066Z,5.2
2017-12-04T03:48:48.661Z,5.2
2017-12-04T03:49:50.269Z,5.2
2017-12-04T03:50:51.869Z,5.2
2017-12-04T03:51:53.478Z,5.2
2017-12-04T03:52:55.077Z,5.2
2017-12-04T03:53:56.686Z,5.2
2017-12-04T03:54:58.285Z,5.3
2017-12-04T03:55:59.893Z,5.2
2017-12-04T03:57:01.492Z,5.2
2017-12-04T03:58:03.102Z,5.2
2017-12-04T03:59:04.705Z,5.2
2017-12-04T04:00:06.315Z,5.2
2017-12-04T04:01:07.908Z,5.2
2017-12-04T04:02:09.517Z,5.2
2017-12-04T04:03:11.122Z,5.2
2017-12-04T04:04:12.721Z,5.2
2017-12-04T04:05:14.328Z,5.3
2017-12-04T04:06:15.933Z,5.3
2017-12-04T04:07:17.540Z,5.3
2017-12-04T04:08:19.144Z,5.3
2017-12-04T04:09:20.748Z,5.3
2017-12-04T04:10:22.352Z,5.2
2017-12-04T04:11:23.955Z,5.2
2017-12-04T04:12:25.557Z,5.2
2017-12-04T04:13:27.190Z,5.2
2017-12-04T04:14:28.798Z,5.2
2017-12-04T04:15:30.398Z,5.2
2017-12-04T04:16:32.001Z,5.2
2017-12-04T04:17:33.604Z,5.2
2017-12-04T04:18:35.207Z,5.2
2017-12-04T04:19:36.808Z,5.2
2017-12-04T04:20:38.418Z,5.2
2017-12-04T04:21:40.019Z,5.2
2017-12-04T04:22:41.627Z,5.2
2017-12-04T04:23:43.234Z,5.3
2017-12-04T04:24:44.831Z,5.2
2017-12-04T04:25:46.432Z,5.2
2017-12-04T04:26:48.044Z,5.2
2017-12-04T04:27:49.647Z,5.3
2017-12-04T04:28:51.251Z,5.3
2017-12-04T04:29:52.861Z,5.2
2017-12-04T04:30:54.463Z,5.2
2017-12-04T04:31:56.064Z,5.2
2017-12-04T04:32:57.670Z,5.2
2017-12-04T04:33:59.270Z,5.2
2017-12-04T04:35:00.877Z,5.2
2017-12-04T04:36:02.482Z,5.2
2017-12-04T04:37:04.084Z,5.2
2017-12-04T04:38:05.692Z,5.3
2017-12-04T04:39:07.290Z,5.2
2017-12-04T04:40:08.905Z,5.2
2017-12-04T04:41:10.518Z,5.2
2017-12-04T04:42:12.117Z,5.2
2017-12-04T04:43:13.718Z,5.2
2017-12-04T04:44:15.322Z,5.2
2017-12-04T04:45:16.927Z,5.3
2017-12-04T04:46:18.527Z,5.3
2017-12-04T04:47:20.128Z,5.3
2017-12-04T04:48:21.737Z,5.2
2017-12-04T04:49:23.336Z,5.1
2017-12-04T04:50:24.948Z,5.3
2017-12-04T04:51:26.549Z,5.3
2017-12-04T04:52:28.156Z,5.2
2017-12-04T04:53:29.769Z,5.2
2017-12-04T04:54:31.368Z,5.2
2017-12-04T04:55:32.968Z,5.2
2017-12-04T04:56:34.576Z,5.2
2017-12-04T04:57:36.178Z,5.3
2017-12-04T04:58:37.786Z,5.2
2017-12-04T04:59:39.384Z,5.3
2017-12-04T05:00:40.991Z,5.2
2017-12-04T05:01:42.590Z,5.3
2017-12-04T05:02:44.195Z,5.2
2017-12-04T05:03:45.796Z,5.3
2017-12-04T05:04:47.401Z,5.3
2017-12-04T05:05:49.010Z,5.2
2017-12-04T05:06:50.610Z,5.2
2017-12-04T05:07:52.220Z,5.2
2017-12-04T05:08:53.818Z,5.2
2017-12-04T05:09:55.419Z,5.3
2017-12-04T05:10:57.026Z,5.2
2017-12-04T05:11:58.633Z,5.3
2017-12-04T05:13:00.236Z,5.2
2017-12-04T05:14:01.842Z,5.3
2017-12-04T05:15:03.443Z,5.2
2017-12-04T05:16:05.056Z,5.4
2017-12-04T05:17:06.653Z,5.2
2017-12-04T05:18:08.262Z,5.3
2017-12-04T05:19:09.864Z,5.3
2017-12-04T05:20:11.477Z,5.4
2017-12-04T05:21:13.074Z,5.4
2017-12-04T05:22:14.680Z,5.3
2017-12-04T05:23:16.285Z,5.4
2017-12-04T05:24:17.889Z,5.4
2017-12-04T05:25:19.498Z,5.4
2017-12-04T05:26:21.103Z,5.3
2017-12-04T05:27:22.705Z,5.3
2017-12-04T05:28:24.309Z,5.4
2017-12-04T05:29:25.916Z,5.5
2017-12-04T05:30:27.514Z,5.4
2017-12-04T05:31:29.118Z,5.4
2017-12-04T05:32:30.726Z,5.4
2017-12-04T05:33:32.336Z,5.4
2017-12-04T05:34:33.937Z,5.4
2017-12-04T05:35:35.544Z,5.4
2017-12-04T05:36:37.146Z,5.4
2017-12-04T05:37:38.751Z,5.4
2017-12-04T05:38:40.353Z,5.4
2017-12-04T05:39:41.964Z,5.4
2017-12-04T05:40:43.564Z,5.4
2017-12-04T05:41:45.170Z,5.4
2017-12-04T05:42:46.775Z,5.4
2017-12-04T05:43:48.380Z,5.5
2017-12-04T05:44:49.979Z,5.5
2017-12-04T05:45:51.583Z,5.5
2017-12-04T05:46:53.190Z,5.6
2017-12-04T05:47:54.798Z,5.6
2017-12-04T05:48:56.398Z,5.5
2017-12-04T05:49:58.002Z,5.5
2017-12-04T05:50:59.608Z,5.6
2017-12-04T05:52:01.214Z,5.5
2017-12-04T05:53:02.820Z,5.5
2017-12-04T05:54:04.423Z,5.6
2017-12-04T05:55:06.029Z,5.5
2017-12-04T05:56:07.634Z,5.5
2017-12-04T05:57:09.233Z,5.7
2017-12-04T05:58:10.839Z,5.5
2017-12-04T05:59:12.437Z,5.6
2017-12-04T06:00:14.064Z,5.5
2017-12-04T06:01:15.649Z,5.6
2017-12-04T06:02:17.260Z,5.6
2017-12-04T06:03:18.863Z,5.6
2017-12-04T06:04:20.470Z,5.6
2017-12-04T06:05:22.068Z,5.6
2017-12-04T06:06:23.677Z,5.6
2017-12-04T06:07:25.278Z,5.7
2017-12-04T06:08:26.880Z,5.6
2017-12-04T06:09:28.491Z,5.7
2017-12-04T06:10:30.094Z,5.6
2017-12-04T06:11:31.701Z,5.8
2017-12-04T06:12:33.307Z,5.7
2017-12-04T06:13:34.912Z,5.6
2017-12-04T06:14:36.513Z,5.8
2017-12-04T06:15:38.118Z,5.7
2017-12-04T06:16:39.722Z,5.7
2017-12-04T06:17:41.331Z,5.7
2017-12-04T06:18:42.932Z,5.7
2017-12-04T06:19:44.539Z,5.8
2017-12-04T06:20:46.140Z,5.7
2017-12-04T06:21:47.746Z,5.8
2017-12-04T06:22:49.352Z,5.8
2017-12-04T06:23:50.961Z,5.8
2017-12-04T06:24:52.569Z,5.9
2017-12-04T06:25:54.167Z,5.9
2017-12-04T06:26:55.768Z,5.8
2017-12-04T06:27:57.371Z,5.8
2017-12-04T06:28:58.975Z,5.8
2017-12-04T06:30:00.584Z,5.8
2017-12-04T06:31:02.188Z,5.8
2017-12-04T06:32:03.795Z,5.8
2017-12-04T06:33:05.392Z,5.7
2017-12-04T06:34:06.999Z,5.8
2017-12-04T06:35:08.598Z,5.8
2017-12-04T06:36:10.206Z,5.8
2017-12-04T06:37:11.812Z,5.8
2017-12-04T06:38:13.419Z,5.9
2017-12-04T06:39:15.019Z,5.9
2017-12-04T06:40:16.618Z,5.8
2017-12-04T06:41:18.221Z,5.9
2017-12-04T06:42:19.830Z,5.9
2017-12-04T06:43:21.428Z,5.9
2017-12-04T06:44:23.038Z,5.9
2017-12-04T06:45:24.638Z,6.0
2017-12-04T06:46:26.252Z,5.9
2017-12-04T06:47:27.847Z,5.9
2017-12-04T06:48:29.508Z,5.9
2017-12-04T06:49:31.063Z,5.9
2017-12-04T06:50:32.664Z,5.9
2017-12-04T06:51:34.271Z,5.9
2017-12-04T06:52:35.878Z,5.9
2017-12-04T06:53:37.480Z,5.9
2017-12-04T06:54:39.079Z,6.0
2017-12-04T06:55:40.681Z,6.0
2017-12-04T06:56:42.292Z,6.1
2017-12-04T06:57:43.893Z,6.1
2017-12-04T06:58:45.503Z,6.1
2017-12-04T06:59:47.110Z,6.1
2017-12-04T07:00:48.716Z,6.1
2017-12-04T07:01:50.316Z,6.0
2017-12-04T07:02:51.926Z,6.0
2017-12-04T07:03:53.532Z,6.0
2017-12-04T07:04:55.134Z,6.2
2017-12-04T07:05:56.787Z,6.1
2017-12-04T07:06:58.389Z,6.1
2017-12-04T07:07:59.995Z,6.2
2017-12-04T07:09:01.598Z,6.1
2017-12-04T07:10:03.201Z,6.2
2017-12-04T07:11:04.805Z,6.1
2017-12-04T07:12:06.416Z,6.1
2017-12-04T07:13:08.054Z,6.1
2017-12-04T07:14:09.659Z,6.0
2017-12-04T07:15:11.271Z,6.2
2017-12-04T07:16:13.094Z,6.2
2017-12-04T07:17:14.696Z,6.1
2017-12-04T07:18:16.298Z,6.1
2017-12-04T07:19:17.909Z,6.2
2017-12-04T07:20:19.517Z,6.1
2017-12-04T07:21:21.118Z,6.1
2017-12-04T07:22:22.725Z,6.2
2017-12-04T07:23:24.331Z,6.1
2017-12-04T07:24:25.938Z,6.2
2017-12-04T07:25:27.543Z,6.1
2017-12-04T07:26:29.150Z,6.2
2017-12-04T07:27:30.757Z,6.3
2017-12-04T07:28:32.362Z,6.3
2017-12-04T07:29:33.975Z,6.2
2017-12-04T07:30:35.584Z,6.3
2017-12-04T07:31:37.186Z,6.2
2017-12-04T07:32:38.798Z,6.3
2017-12-04T07:33:40.402Z,6.2
2017-12-04T07:34:42.014Z,6.3
2017-12-04T07:35:43.618Z,6.3
2017-12-04T07:36:45.231Z,6.2
2017-12-04T07:37:46.835Z,6.3
2017-12-04T07:38:48.447Z,6.3
2017-12-04T07:39:50.053Z,6.3
2017-12-04T07:40:51.662Z,6.3
2017-12-04T07:41:53.264Z,6.3
2017-12-04T07:42:54.878Z,6.4
2017-12-04T07:43:56.485Z,6.2
2017-12-04T07:44:58.095Z,6.4
2017-12-04T07:45:59.706Z,6.3
2017-12-04T07:47:01.314Z,6.3
2017-12-04T07:48:02.924Z,6.3
2017-12-04T07:49:04.532Z,6.4
2017-12-04T07:50:06.141Z,6.4
2017-12-04T07:51:07.764Z,6.4
2017-12-04T07:52:09.376Z,6.4
2017-12-04T07:53:10.978Z,6.4
2017-12-04T07:54:06.748Z,6.4
2017-12-04T07:55:08.354Z,6.5
2017-12-04T07:57:00.030Z,6.5
2017-12-04T07:58:01.639Z,6.5
2017-12-04T07:59:53.349Z,6.5
2017-12-04T08:00:54.954Z,6.5
2017-12-04T08:02:46.633Z,6.5
2017-12-04T08:03:48.235Z,6.4
2017-12-04T08:05:39.950Z,6.6
2017-12-04T08:06:41.557Z,6.5
2017-12-04T08:08:33.234Z,6.4
2017-12-04T08:09:34.844Z,6.5
2017-12-04T08:11:26.545Z,6.5
2017-12-04T08:12:28.149Z,6.5
2017-12-04T08:14:19.837Z,6.6
2017-12-04T08:15:21.437Z,6.5
2017-12-04T08:17:13.143Z,6.6
2017-12-04T08:18:16.577Z,6.5
2017-12-04T08:20:08.848Z,6.5
2017-12-04T08:21:10.458Z,6.5
2017-12-04T08:23:02.179Z,6.5
2017-12-04T08:24:04.157Z,6.5
2017-12-04T08:25:55.876Z,6.5
2017-12-04T08:26:57.483Z,6.6
2017-12-04T08:28:49.198Z,6.6
2017-12-04T08:29:50.793Z,6.5
2017-12-04T08:31:42.505Z,6.5
2017-12-04T08:32:44.096Z,6.5
2017-12-04T08:34:35.802Z,6.6
2017-12-04T08:35:37.582Z,6.5
2017-12-04T08:37:29.257Z,6.6
2017-12-04T08:38:30.867Z,6.6
2017-12-04T08:40:22.577Z,6.7
2017-12-04T08:41:24.178Z,6.6
2017-12-04T08:43:15.884Z,6.6
2017-12-04T08:44:17.493Z,6.6
2017-12-04T08:46:09.195Z,6.7
2017-12-04T08:47:10.816Z,6.6
2017-12-04T08:49:02.487Z,6.7
2017-12-04T08:50:04.096Z,6.7
2017-12-04T08:51:55.801Z,6.7
2017-12-04T08:52:57.411Z,6.7
2017-12-04T08:54:49.087Z,7.0
2017-12-04T08:55:50.698Z,7.0
2017-12-04T08:57:42.402Z,6.9
2017-12-04T08:58:44.013Z,6.9
2017-12-04T09:00:35.693Z,6.9
2017-12-04T09:01:37.302Z,6.8
2017-12-04T09:03:29.492Z,6.8
2017-12-04T09:04:39.612Z,6.9
2017-12-04T09:05:32.713Z,6.9
2017-12-04T09:06:49.893Z,6.9
2017-12-04T09:07:51.503Z,6.8
2017-12-04T09:08:53.114Z,6.9
2017-12-04T09:09:54.724Z,6.9
2017-12-04T09:10:56.331Z,6.8
2017-12-04T09:11:57.943Z,7.0
2017-12-04T09:12:59.549Z,6.9
2017-12-04T09:14:01.158Z,6.9
2017-12-04T09:15:02.771Z,6.8
2017-12-04T09:16:04.382Z,6.9
2017-12-04T09:17:06.017Z,6.9
2017-12-04T09:18:07.632Z,6.9
2017-12-04T09:19:09.242Z,7.0
2017-12-04T09:20:10.853Z,7.0
2017-12-04T09:21:12.459Z,6.9
2017-12-04T09:22:14.070Z,7.0
2017-12-04T09:23:15.685Z,7.0
2017-12-04T09:24:17.296Z,7.1
2017-12-04T09:25:18.904Z,7.1
2017-12-04T09:26:20.514Z,7.1
2017-12-04T09:27:22.126Z,7.0
2017-12-04T09:28:23.733Z,7.0
2017-12-04T09:29:25.349Z,7.1
2017-12-04T09:30:26.956Z,7.1
2017-12-04T09:31:28.571Z,7.1
2017-12-04T09:32:30.188Z,7.1
2017-12-04T09:33:31.790Z,7.1
2017-12-04T09:34:33.399Z,7.2
2017-12-04T09:35:35.012Z,7.1
2017-12-04T09:36:36.622Z,7.1
2017-12-04T09:37:38.232Z,7.1
2017-12-04T09:38:39.839Z,7.2
2017-12-04T09:39:41.456Z,7.0
2017-12-04T09:40:43.059Z,7.2
2017-12-04T09:41:44.667Z,7.1
2017-12-04T09:42:46.272Z,7.0
2017-12-04T09:43:47.883Z,7.2
2017-12-04T09:44:49.494Z,7.2
2017-12-04T09:45:51.099Z,7.1
2017-12-04T09:46:52.722Z,7.1
2017-12-04T09:47:54.320Z,7.2
2017-12-04T09:48:55.933Z,7.2
2017-12-04T09:49:57.537Z,7.2
2017-12-04T09:50:59.715Z,7.2
2017-12-04T09:52:01.785Z,7.2
2017-12-04T09:53:04.319Z,7.2
2017-12-04T09:54:06.115Z,7.2
2017-12-04T09:55:07.728Z,7.3
2017-12-04T09:56:09.333Z,7.3
2017-12-04T09:57:11.417Z,7.4
2017-12-04T09:58:13.509Z,7.4
2017-12-04T09:59:15.656Z,7.3
2017-12-04T10:00:17.605Z,7.4
2017-12-04T10:01:19.683Z,7.4
2017-12-04T10:02:22.522Z,7.4
2017-12-04T10:03:24.409Z,7.3
2017-12-04T10:04:26.404Z,7.3
2017-12-04T10:05:28.270Z,7.4
2017-12-04T10:06:30.299Z,7.4
2017-12-04T10:07:32.133Z,7.3
2017-12-04T10:08:34.123Z,7.5
2017-12-04T10:09:36.135Z,7.5
2017-12-04T10:10:38.042Z,7.5
2017-12-04T10:11:39.887Z,7.5
2017-12-04T10:12:41.926Z,7.4
2017-12-04T10:13:43.947Z,7.5
2017-12-04T10:14:45.937Z,7.5
2017-12-04T10:15:48.196Z,7.5
2017-12-04T10:16:50.374Z,7.4
2017-12-04T10:17:52.080Z,7.6
2017-12-04T10:18:54.569Z,7.5
2017-12-04T10:19:56.554Z,7.6
2017-12-04T10:20:58.522Z,7.5
2017-12-04T10:22:00.288Z,7.6
2017-12-04T10:23:02.260Z,7.6
2017-12-04T10:24:04.294Z,7.6
2017-12-04T10:25:06.274Z,7.6
2017-12-04T10:26:07.892Z,7.6
2017-12-04T10:27:09.497Z,7.6
2017-12-04T10:28:11.104Z,7.5
2017-12-04T10:29:12.716Z,7.5
2017-12-04T10:30:14.331Z,7.5
2017-12-04T10:31:15.938Z,7.5
2017-12-04T10:32:17.544Z,7.5
2017-12-04T10:33:19.159Z,7.5
2017-12-04T10:34:20.765Z,7.5
2017-12-04T10:35:22.372Z,7.5
2017-12-04T10:36:23.981Z,7.5
2017-12-04T10:37:25.598Z,7.4
2017-12-04T10:38:27.204Z,7.5
2017-12-04T10:39:28.812Z,7.5
2017-12-04T10:40:30.416Z,7.5
2017-12-04T10:41:32.029Z,7.5
2017-12-04T10:42:33.633Z,7.5
2017-12-04T10:43:35.247Z,7.5
2017-12-04T10:44:36.853Z,7.4
2017-12-04T10:45:38.464Z,7.5
2017-12-04T10:46:40.070Z,7.4
2017-12-04T10:47:41.684Z,7.5
2017-12-04T10:48:43.346Z,7.5
2017-12-04T10:49:44.910Z,7.5
2017-12-04T10:50:46.513Z,7.4
2017-12-04T10:51:48.127Z,7.4
2017-12-04T10:52:49.730Z,7.5
2017-12-04T10:53:51.343Z,7.5
2017-12-04T10:54:52.949Z,7.5
2017-12-04T10:55:54.563Z,7.5
2017-12-04T10:56:56.171Z,7.5
2017-12-04T10:57:57.787Z,7.5
2017-12-04T10:58:59.399Z,7.6
2017-12-04T11:00:01.004Z,7.5
2017-12-04T11:01:02.617Z,7.5
2017-12-04T11:02:04.224Z,7.5
2017-12-04T11:03:05.839Z,7.6
2017-12-04T11:04:07.447Z,7.6
2017-12-04T11:05:09.060Z,7.6
2017-12-04T11:06:10.674Z,7.6
2017-12-04T11:07:12.289Z,7.5
2017-12-04T11:08:13.893Z,7.7
2017-12-04T11:09:15.506Z,7.7
2017-12-04T11:10:17.113Z,7.7
2017-12-04T11:11:18.735Z,7.7
2017-12-04T11:12:20.344Z,7.7
2017-12-04T11:13:21.958Z,7.7
2017-12-04T11:14:23.572Z,7.7
2017-12-04T11:15:25.185Z,7.9
2017-12-04T11:16:26.791Z,7.9
2017-12-04T11:17:28.402Z,7.9
2017-12-04T11:18:30.018Z,7.9
2017-12-04T11:19:31.631Z,7.9
2017-12-04T11:20:33.245Z,7.9
2017-12-04T11:21:34.857Z,7.9
2017-12-04T11:22:36.463Z,7.9
2017-12-04T11:23:38.074Z,7.9
2017-12-04T11:24:39.683Z,7.9
2017-12-04T11:25:41.301Z,7.9
2017-12-04T11:26:42.913Z,7.9
2017-12-04T11:27:44.525Z,8.0
2017-12-04T11:28:46.138Z,8.0
2017-12-04T11:29:47.751Z,8.0
2017-12-04T11:30:49.357Z,8.0
2017-12-04T11:31:50.979Z,8.0
2017-12-04T11:32:52.584Z,7.9
2017-12-04T11:33:54.201Z,7.9
2017-12-04T11:34:55.808Z,7.8
2017-12-04T11:35:57.418Z,7.9
2017-12-04T11:36:59.023Z,7.9
2017-12-04T11:38:00.635Z,8.0
2017-12-04T11:39:02.243Z,7.9
2017-12-04T11:40:03.851Z,7.9
2017-12-04T11:41:05.836Z,7.9
2017-12-04T11:42:07.451Z,7.9
2017-12-04T11:43:09.085Z,7.9
2017-12-04T11:44:10.688Z,8.0
2017-12-04T11:45:13.322Z,8.0
2017-12-04T11:46:15.590Z,8.0
2017-12-04T11:47:18.191Z,7.9
2017-12-04T11:48:24.219Z,7.9
2017-12-04T11:49:36.236Z,8.0
2017-12-04T11:50:39.227Z,8.0
2017-12-04T11:51:49.692Z,8.0
2017-12-04T11:52:57.984Z,8.0
2017-12-04T11:54:04.033Z,7.9
2017-12-04T11:55:05.649Z,7.9
2017-12-04T11:56:07.256Z,8.0
2017-12-04T11:57:08.873Z,8.0
2017-12-04T11:58:10.478Z,7.9
2017-12-04T11:59:12.086Z,8.0
2017-12-04T12:00:13.734Z,7.9
2017-12-04T12:01:16.071Z,8.0
2017-12-04T12:02:17.680Z,8.0
2017-12-04T12:03:19.296Z,8.0
2017-12-04T12:04:20.912Z,8.0
2017-12-04T12:05:22.631Z,8.1
2017-12-04T12:06:24.471Z,8.0
2017-12-04T12:07:26.085Z,7.9
2017-12-04T12:08:27.692Z,8.0
2017-12-04T12:09:29.301Z,7.9
2017-12-04T12:10:30.917Z,8.0
2017-12-04T12:11:32.668Z,7.9
2017-12-04T12:12:34.272Z,7.9
2017-12-04T12:13:35.886Z,7.9
2017-12-04T12:14:37.495Z,8.0
2017-12-04T12:15:43.874Z,7.9
2017-12-04T12:16:45.436Z,8.0
2017-12-04T12:17:47.046Z,8.0
2017-12-04T12:18:48.661Z,8.0
2017-12-04T12:19:50.265Z,8.0
2017-12-04T12:20:51.874Z,8.0
2017-12-04T12:21:53.929Z,8.0
2017-12-04T12:22:55.776Z,8.0
2017-12-04T12:23:57.382Z,8.0
2017-12-04T12:24:59.705Z,7.9
2017-12-04T12:26:01.957Z,8.0
2017-12-04T12:27:04.262Z,8.0
2017-12-04T12:28:05.876Z,8.0
2017-12-04T12:29:07.487Z,7.9
2017-12-04T12:30:09.227Z,8.0
2017-12-04T12:31:10.844Z,7.9
2017-12-04T12:32:12.616Z,8.0
2017-12-04T12:33:14.236Z,8.0
2017-12-04T12:34:15.847Z,8.1
2017-12-04T12:35:17.455Z,8.0
2017-12-04T12:36:19.065Z,8.1
2017-12-04T12:37:20.682Z,8.0
2017-12-04T12:38:22.295Z,8.0
2017-12-04T12:39:23.904Z,8.1
2017-12-04T12:40:25.523Z,8.0
2017-12-04T12:41:27.130Z,8.0
2017-12-04T12:42:28.742Z,8.0
2017-12-04T12:43:30.347Z,8.1
2017-12-04T12:44:31.962Z,8.0
2017-12-04T12:45:33.625Z,8.2
2017-12-04T12:46:35.184Z,8.0
2017-12-04T12:47:36.799Z,8.0
2017-12-04T12:48:38.424Z,8.1
2017-12-04T12:49:40.038Z,8.1
2017-12-04T12:50:41.639Z,8.0
2017-12-04T12:51:43.254Z,8.1
2017-12-04T12:52:44.860Z,8.0
2017-12-04T12:53:46.469Z,8.0
2017-12-04T12:54:48.078Z,8.0
2017-12-04T12:55:49.692Z,8.0
2017-12-04T12:56:51.306Z,8.0
2017-12-04T12:57:52.911Z,7.9
2017-12-04T12:58:54.522Z,8.0
2017-12-04T12:59:56.142Z,8.0
2017-12-04T13:00:57.866Z,8.0
2017-12-04T13:01:59.477Z,7.9
2017-12-04T13:03:01.094Z,8.0
2017-12-04T13:04:02.706Z,8.0
2017-12-04T13:05:04.319Z,8.1
2017-12-04T13:06:05.924Z,8.1
2017-12-04T13:07:08.526Z,8.1
2017-12-04T13:08:10.136Z,8.1
2017-12-04T13:09:11.745Z,8.2
2017-12-04T13:10:13.358Z,8.1
2017-12-04T13:11:14.958Z,8.1
2017-12-04T13:12:16.571Z,8.0
2017-12-04T13:13:18.183Z,8.0
2017-12-04T13:14:19.803Z,8.2
2017-12-04T13:15:21.409Z,8.1
2017-12-04T13:16:23.023Z,8.1
2017-12-04T13:17:24.633Z,8.1
2017-12-04T13:18:26.246Z,8.0
2017-12-04T13:19:27.854Z,8.1
2017-12-04T13:20:29.466Z,8.2
2017-12-04T13:21:31.073Z,8.1
2017-12-04T13:22:32.691Z,8.2
2017-12-04T13:23:34.299Z,8.2
2017-12-04T13:24:35.914Z,8.2
2017-12-04T13:25:37.525Z,8.2
2017-12-04T13:26:39.144Z,8.2
2017-12-04T13:27:40.741Z,8.2
2017-12-04T13:28:42.354Z,8.1
2017-12-04T13:29:43.962Z,8.2
2017-12-04T13:30:45.578Z,8.2
2017-12-04T13:31:47.186Z,8.0
2017-12-04T13:32:48.792Z,8.1
2017-12-04T13:33:50.400Z,8.1
2017-12-04T13:34:52.013Z,8.2
2017-12-04T13:35:53.624Z,8.0
2017-12-04T13:36:55.236Z,8.1
2017-12-04T13:37:56.840Z,8.1
2017-12-04T13:38:58.456Z,8.2
2017-12-04T13:40:00.058Z,8.1
2017-12-04T13:41:01.719Z,8.1
2017-12-04T13:42:03.278Z,8.1
2017-12-04T13:43:04.895Z,8.0
2017-12-04T13:44:06.506Z,8.0
2017-12-04T13:45:08.112Z,8.2
2017-12-04T13:46:09.724Z,8.2
2017-12-04T13:47:11.334Z,8.2
2017-12-04T13:48:12.945Z,8.2
2017-12-04T13:49:14.548Z,8.0
2017-12-04T13:50:16.157Z,8.0
2017-12-04T13:51:17.770Z,8.0
2017-12-04T13:52:19.382Z,8.0
2017-12-04T13:53:20.986Z,8.1
2017-12-04T13:54:22.599Z,8.1
2017-12-04T13:55:24.207Z,8.0
2017-12-04T13:56:25.822Z,8.1
2017-12-04T13:57:27.427Z,8.1
2017-12-04T13:58:29.048Z,8.1
2017-12-04T13:59:30.655Z,8.1
2017-12-04T14:00:32.269Z,8.1
2017-12-04T14:01:33.875Z,8.0
2017-12-04T14:02:35.482Z,8.0
2017-12-04T14:03:37.095Z,8.0
2017-12-04T14:04:38.706Z,8.1
2017-12-04T14:05:40.314Z,8.1
2017-12-04T14:06:41.927Z,8.1
2017-12-04T14:07:43.532Z,8.0
2017-12-04T14:08:45.139Z,8.1
2017-12-04T14:09:46.750Z,8.1
2017-12-04T14:10:48.362Z,8.1
2017-12-04T14:11:49.969Z,8.0
2017-12-04T14:12:51.578Z,8.0
2017-12-04T14:13:53.192Z,8.0
2017-12-04T14:14:54.800Z,8.0
2017-12-04T14:15:56.405Z,8.1
2017-12-04T14:16:58.021Z,8.1
2017-12-04T14:17:59.627Z,8.1
2017-12-04T14:19:01.234Z,8.1
2017-12-04T14:20:02.851Z,8.0
2017-12-04T14:21:04.464Z,8.1
2017-12-04T14:22:06.069Z,8.0
2017-12-04T14:23:07.676Z,8.0
2017-12-04T14:24:09.286Z,8.1
2017-12-04T14:25:10.897Z,8.1
2017-12-04T14:26:12.506Z,8.1
2017-12-04T14:27:14.116Z,8.1
2017-12-04T14:28:15.738Z,8.1
2017-12-04T14:29:17.338Z,8.0
2017-12-04T14:30:18.941Z,8.1